sensor_id;sensor_type;location;lat;lon;timestamp;pressure;altitude;pressure_sealevel;temperature;humidity
3697;BME280;60662;48.810;8.872;2023-06-26T08:01:25;96540.44;;;29.42;41.02
3697;BME280;60662;48.810;8.872;2023-06-26T08:03:44;96549.28;;;29.58;40.41
3697;BME280;60662;48.810;8.872;2023-06-26T08:06:03;96550.44;;;29.48;41.05
3697;BME280;60662;48.810;8.872;2023-06-26T08:08:21;96546.19;;;29.61;40.43
3697;BME280;60662;48.810;8.872;2023-06-26T08:10:41;96544.81;;;29.65;40.74
3697;BME280;60662;48.810;8.872;2023-06-26T08:13:07;96544.66;;;29.73;40.63
3697;BME280;60662;48.810;8.872;2023-06-26T08:15:41;96555.41;;;29.73;41.05
3697;BME280;60662;48.810;8.872;2023-06-26T08:18:19;96545.84;;;30.07;40.09
3697;BME280;60662;48.810;8.872;2023-06-26T08:19:20;96544.84;;;30.15;40.46
3697;BME280;60662;48.810;8.872;2023-06-26T08:21:46;96552.13;;;30.15;40.25
3697;BME280;60662;48.810;8.872;2023-06-26T08:22:48;96544.81;;;29.87;40.05
3697;BME280;60662;48.810;8.872;2023-06-26T08:25:26;96540.25;;;29.87;40.10
3697;BME280;60662;48.810;8.872;2023-06-26T08:26:28;96536.34;;;29.68;39.99
3697;BME280;60662;48.810;8.872;2023-06-26T08:29:15;96531.34;;;29.87;40.03
3697;BME280;60662;48.810;8.872;2023-06-26T08:30:16;96540.03;;;29.45;40.27
3697;BME280;60662;48.810;8.872;2023-06-26T08:31:18;96533.69;;;29.16;40.43
3697;BME280;60662;48.810;8.872;2023-06-26T08:32:20;96537.84;;;29.34;40.05
3697;BME280;60662;48.810;8.872;2023-06-26T08:35:06;96536.75;;;29.28;40.85
3697;BME280;60662;48.810;8.872;2023-06-26T08:36:08;96535.56;;;29.74;40.10
3697;BME280;60662;48.810;8.872;2023-06-26T08:37:09;96540.78;;;29.97;40.45
3697;BME280;60662;48.810;8.872;2023-06-26T08:38:11;96542.88;;;30.02;40.10
3697;BME280;60662;48.810;8.872;2023-06-26T08:39:12;96538.56;;;30.08;40.17
3697;BME280;60662;48.810;8.872;2023-06-26T08:40:17;96539.44;;;30.08;40.07
3697;BME280;60662;48.810;8.872;2023-06-26T08:41:20;96544.16;;;30.06;39.88
3697;BME280;60662;48.810;8.872;2023-06-26T08:42:21;96540.56;;;29.99;39.74
3697;BME280;60662;48.810;8.872;2023-06-26T08:43:23;96546.13;;;29.76;40.34
3697;BME280;60662;48.810;8.872;2023-06-26T08:44:24;96545.75;;;29.79;39.93
3697;BME280;60662;48.810;8.872;2023-06-26T08:45:26;96545.34;;;29.39;39.95
3697;BME280;60662;48.810;8.872;2023-06-26T08:46:30;96537.09;;;29.25;40.63
3697;BME280;60662;48.810;8.872;2023-06-26T08:47:34;96540.44;;;29.27;40.48
3697;BME280;60662;48.810;8.872;2023-06-26T08:48:37;96534.41;;;29.25;40.25
3697;BME280;60662;48.810;8.872;2023-06-26T08:50:48;96539.97;;;29.24;40.37
3697;BME280;60662;48.810;8.872;2023-06-26T08:52:11;96550.28;;;29.35;40.36
3697;BME280;60662;48.810;8.872;2023-06-26T08:54:27;96543.41;;;29.32;40.53
3697;BME280;60662;48.810;8.872;2023-06-26T08:55:31;96541.31;;;29.49;40.25
3697;BME280;60662;48.810;8.872;2023-06-26T08:56:41;96547.78;;;29.19;40.33
3697;BME280;60662;48.810;8.872;2023-06-26T08:57:43;96544.22;;;29.33;39.99
3697;BME280;60662;48.810;8.872;2023-06-26T08:58:49;96541.00;;;29.38;40.27
3697;BME280;60662;48.810;8.872;2023-06-26T08:59:51;96547.84;;;29.62;40.05
3697;BME280;60662;48.810;8.872;2023-06-26T09:00:53;96547.56;;;29.93;40.37
3697;BME280;60662;48.810;8.872;2023-06-26T09:01:57;96554.97;;;30.13;39.55
3697;BME280;60662;48.810;8.872;2023-06-26T09:02:59;96553.09;;;30.35;39.05
3697;BME280;60662;48.810;8.872;2023-06-26T09:04:02;96546.91;;;30.41;38.59
3697;BME280;60662;48.810;8.872;2023-06-26T09:05:04;96551.81;;;30.31;38.37
3697;BME280;60662;48.810;8.872;2023-06-26T09:06:06;96550.50;;;30.49;38.59
3697;BME280;60662;48.810;8.872;2023-06-26T09:07:07;96551.19;;;30.57;38.20
3697;BME280;60662;48.810;8.872;2023-06-26T09:08:09;96553.34;;;30.40;38.39
3697;BME280;60662;48.810;8.872;2023-06-26T09:09:11;96556.66;;;30.14;38.95
3697;BME280;60662;48.810;8.872;2023-06-26T09:10:12;96553.63;;;30.24;38.61
3697;BME280;60662;48.810;8.872;2023-06-26T09:11:14;96552.25;;;30.56;38.74
3697;BME280;60662;48.810;8.872;2023-06-26T09:12:16;96550.63;;;30.40;38.46
3697;BME280;60662;48.810;8.872;2023-06-26T09:13:18;96549.38;;;30.36;38.58
3697;BME280;60662;48.810;8.872;2023-06-26T09:14:30;96554.75;;;30.65;38.35
3697;BME280;60662;48.810;8.872;2023-06-26T09:15:41;96559.63;;;30.83;38.01
3697;BME280;60662;48.810;8.872;2023-06-26T09:16:43;96554.63;;;30.73;37.94
3697;BME280;60662;48.810;8.872;2023-06-26T09:17:45;96562.41;;;30.96;37.42
3697;BME280;60662;48.810;8.872;2023-06-26T09:18:48;96561.53;;;31.31;37.29
3697;BME280;60662;48.810;8.872;2023-06-26T09:19:51;96558.81;;;31.24;37.37
3697;BME280;60662;48.810;8.872;2023-06-26T09:20:53;96555.78;;;31.47;37.51
3697;BME280;60662;48.810;8.872;2023-06-26T09:21:56;96560.94;;;31.42;37.12
3697;BME280;60662;48.810;8.872;2023-06-26T09:22:59;96550.38;;;31.40;37.13
3697;BME280;60662;48.810;8.872;2023-06-26T09:24:01;96556.84;;;31.53;36.45
3697;BME280;60662;48.810;8.872;2023-06-26T09:25:04;96561.91;;;31.21;37.27
3697;BME280;60662;48.810;8.872;2023-06-26T09:26:06;96548.94;;;31.03;37.82
3697;BME280;60662;48.810;8.872;2023-06-26T09:27:08;96561.75;;;31.36;37.47
3697;BME280;60662;48.810;8.872;2023-06-26T09:28:09;96550.28;;;31.89;37.12
3697;BME280;60662;48.810;8.872;2023-06-26T09:29:13;96548.41;;;31.76;37.00
3697;BME280;60662;48.810;8.872;2023-06-26T09:30:18;96549.88;;;31.99;36.93
3697;BME280;60662;48.810;8.872;2023-06-26T09:31:20;96553.81;;;31.89;37.08
3697;BME280;60662;48.810;8.872;2023-06-26T09:32:40;96553.84;;;32.03;37.32
3697;BME280;60662;48.810;8.872;2023-06-26T09:33:42;96557.16;;;31.91;36.83
3697;BME280;60662;48.810;8.872;2023-06-26T09:34:44;96547.56;;;31.75;36.77
3697;BME280;60662;48.810;8.872;2023-06-26T09:35:47;96558.19;;;31.84;37.34
3697;BME280;60662;48.810;8.872;2023-06-26T09:36:53;96555.06;;;31.80;37.65
3697;BME280;60662;48.810;8.872;2023-06-26T09:37:55;96560.06;;;32.17;37.78
3697;BME280;60662;48.810;8.872;2023-06-26T09:38:56;96559.00;;;32.11;37.31
3697;BME280;60662;48.810;8.872;2023-06-26T09:39:58;96553.03;;;32.22;36.41
3697;BME280;60662;48.810;8.872;2023-06-26T09:40:59;96554.88;;;32.15;37.07
3697;BME280;60662;48.810;8.872;2023-06-26T09:42:01;96552.16;;;32.69;36.91
3697;BME280;60662;48.810;8.872;2023-06-26T09:43:09;96552.16;;;32.76;35.63
3697;BME280;60662;48.810;8.872;2023-06-26T09:44:14;96543.22;;;32.55;35.71
3697;BME280;60662;48.810;8.872;2023-06-26T09:45:19;96552.56;;;32.79;35.95
3697;BME280;60662;48.810;8.872;2023-06-26T09:46:27;96555.06;;;32.14;37.51
3697;BME280;60662;48.810;8.872;2023-06-26T09:47:33;96564.03;;;32.34;38.24
3697;BME280;60662;48.810;8.872;2023-06-26T09:48:35;96549.47;;;32.08;38.37
3697;BME280;60662;48.810;8.872;2023-06-26T09:49:43;96554.66;;;32.03;38.58
3697;BME280;60662;48.810;8.872;2023-06-26T09:50:45;96553.66;;;32.38;38.48
3697;BME280;60662;48.810;8.872;2023-06-26T09:52:07;96559.00;;;32.71;38.32
3697;BME280;60662;48.810;8.872;2023-06-26T09:53:12;96557.13;;;32.65;38.62
3697;BME280;60662;48.810;8.872;2023-06-26T09:54:21;96557.16;;;32.79;38.46
3697;BME280;60662;48.810;8.872;2023-06-26T09:55:23;96558.41;;;32.49;38.63
3697;BME280;60662;48.810;8.872;2023-06-26T09:56:26;96560.69;;;32.52;39.36
3697;BME280;60662;48.810;8.872;2023-06-26T09:57:28;96552.78;;;32.71;38.82
3697;BME280;60662;48.810;8.872;2023-06-26T09:58:30;96562.28;;;31.73;39.81
3697;BME280;60662;48.810;8.872;2023-06-26T09:59:33;96563.81;;;32.22;40.42
3697;BME280;60662;48.810;8.872;2023-06-26T10:00:34;96557.97;;;32.05;39.80
3697;BME280;60662;48.810;8.872;2023-06-26T10:01:40;96567.50;;;31.88;39.11
3697;BME280;60662;48.810;8.872;2023-06-26T10:02:42;96572.94;;;32.01;38.76
3697;BME280;60662;48.810;8.872;2023-06-26T10:03:43;96567.94;;;31.23;39.78
3697;BME280;60662;48.810;8.872;2023-06-26T10:04:45;96580.03;;;30.35;40.52
3697;BME280;60662;48.810;8.872;2023-06-26T10:05:47;96577.81;;;29.95;41.14
3697;BME280;60662;48.810;8.872;2023-06-26T10:06:51;96572.59;;;30.16;40.81
3697;BME280;60662;48.810;8.872;2023-06-26T10:07:54;96583.97;;;30.11;40.82
3697;BME280;60662;48.810;8.872;2023-06-26T10:08:56;96574.69;;;29.92;41.33
3697;BME280;60662;48.810;8.872;2023-06-26T10:10:02;96578.09;;;29.86;41.87
3697;BME280;60662;48.810;8.872;2023-06-26T10:11:03;96589.69;;;30.29;41.15
3697;BME280;60662;48.810;8.872;2023-06-26T10:12:15;96594.13;;;30.37;40.93
3697;BME280;60662;48.810;8.872;2023-06-26T10:13:22;96582.72;;;30.35;40.54
3697;BME280;60662;48.810;8.872;2023-06-26T10:14:27;96588.88;;;30.29;41.38
3697;BME280;60662;48.810;8.872;2023-06-26T10:15:32;96591.53;;;30.01;41.46
3697;BME280;60662;48.810;8.872;2023-06-26T10:16:34;96588.75;;;29.94;41.58
3697;BME280;60662;48.810;8.872;2023-06-26T10:17:39;96595.53;;;29.68;42.16
3697;BME280;60662;48.810;8.872;2023-06-26T10:18:43;96592.88;;;29.90;41.93
3697;BME280;60662;48.810;8.872;2023-06-26T10:19:45;96602.88;;;29.59;42.38
3697;BME280;60662;48.810;8.872;2023-06-26T10:20:48;96587.50;;;29.53;42.39
3697;BME280;60662;48.810;8.872;2023-06-26T10:21:53;96587.75;;;29.95;42.05
3697;BME280;60662;48.810;8.872;2023-06-26T10:22:57;96586.38;;;29.62;42.83
3697;BME280;60662;48.810;8.872;2023-06-26T10:24:02;96578.81;;;29.06;43.48
3697;BME280;60662;48.810;8.872;2023-06-26T10:25:06;96582.63;;;29.63;42.88
3697;BME280;60662;48.810;8.872;2023-06-26T10:26:09;96595.53;;;29.68;42.70
3697;BME280;60662;48.810;8.872;2023-06-26T10:27:20;96597.28;;;29.97;42.75
3697;BME280;60662;48.810;8.872;2023-06-26T10:28:22;96596.22;;;29.55;42.88
3697;BME280;60662;48.810;8.872;2023-06-26T10:29:25;96595.66;;;29.60;42.80
3697;BME280;60662;48.810;8.872;2023-06-26T10:30:32;96599.13;;;29.24;42.97
3697;BME280;60662;48.810;8.872;2023-06-26T10:31:35;96594.78;;;28.93;43.88
3697;BME280;60662;48.810;8.872;2023-06-26T10:32:37;96605.59;;;28.70;44.73
3697;BME280;60662;48.810;8.872;2023-06-26T10:33:39;96605.88;;;28.22;45.34
3697;BME280;60662;48.810;8.872;2023-06-26T10:34:41;96615.94;;;28.19;45.74
3697;BME280;60662;48.810;8.872;2023-06-26T10:35:44;96605.50;;;28.25;45.97
3697;BME280;60662;48.810;8.872;2023-06-26T10:37:01;96605.16;;;28.28;45.41
3697;BME280;60662;48.810;8.872;2023-06-26T10:38:04;96614.72;;;28.45;45.38
3697;BME280;60662;48.810;8.872;2023-06-26T10:39:06;96611.19;;;28.98;45.05
3697;BME280;60662;48.810;8.872;2023-06-26T10:40:08;96611.69;;;28.48;45.30
3697;BME280;60662;48.810;8.872;2023-06-26T10:41:12;96611.69;;;28.48;45.78
3697;BME280;60662;48.810;8.872;2023-06-26T10:42:14;96619.44;;;28.43;45.88
3697;BME280;60662;48.810;8.872;2023-06-26T10:43:16;96609.03;;;28.25;46.31
3697;BME280;60662;48.810;8.872;2023-06-26T10:44:19;96616.56;;;28.07;47.16
3697;BME280;60662;48.810;8.872;2023-06-26T10:45:23;96616.13;;;28.18;47.28
3697;BME280;60662;48.810;8.872;2023-06-26T10:46:33;96617.75;;;28.04;46.94
3697;BME280;60662;48.810;8.872;2023-06-26T10:47:34;96617.88;;;28.11;47.40
3697;BME280;60662;48.810;8.872;2023-06-26T10:48:58;96618.38;;;28.29;46.96
3697;BME280;60662;48.810;8.872;2023-06-26T10:51:38;96629.47;;;28.49;46.88
3697;BME280;60662;48.810;8.872;2023-06-26T10:52:39;96626.97;;;28.63;46.27
3697;BME280;60662;48.810;8.872;2023-06-26T10:53:40;96616.72;;;29.11;46.17
3697;BME280;60662;48.810;8.872;2023-06-26T10:54:45;96619.97;;;28.77;45.77
3697;BME280;60662;48.810;8.872;2023-06-26T10:55:50;96619.81;;;29.23;45.58
3697;BME280;60662;48.810;8.872;2023-06-26T10:56:55;96620.22;;;28.52;46.35
3697;BME280;60662;48.810;8.872;2023-06-26T10:57:57;96628.00;;;28.24;47.03
3697;BME280;60662;48.810;8.872;2023-06-26T10:59:13;96614.94;;;27.97;47.73
3697;BME280;60662;48.810;8.872;2023-06-26T11:00:16;96614.44;;;27.94;47.50
3697;BME280;60662;48.810;8.872;2023-06-26T11:01:22;96612.69;;;27.78;47.93
3697;BME280;60662;48.810;8.872;2023-06-26T11:02:25;96617.94;;;27.71;48.37
3697;BME280;60662;48.810;8.872;2023-06-26T11:03:29;96619.25;;;28.07;48.21
3697;BME280;60662;48.810;8.872;2023-06-26T11:04:50;96611.94;;;28.39;47.57
3697;BME280;60662;48.810;8.872;2023-06-26T11:06:13;96617.19;;;28.32;47.26
3697;BME280;60662;48.810;8.872;2023-06-26T11:07:25;96615.66;;;28.14;47.66
3697;BME280;60662;48.810;8.872;2023-06-26T11:08:51;96616.53;;;28.30;47.40
3697;BME280;60662;48.810;8.872;2023-06-26T11:10:00;96616.81;;;28.73;46.81
3697;BME280;60662;48.810;8.872;2023-06-26T11:11:02;96609.50;;;28.67;46.47
3697;BME280;60662;48.810;8.872;2023-06-26T11:12:04;96611.84;;;28.85;46.00
3697;BME280;60662;48.810;8.872;2023-06-26T11:13:10;96607.84;;;28.96;46.50
3697;BME280;60662;48.810;8.872;2023-06-26T11:14:12;96609.09;;;29.60;45.76
3697;BME280;60662;48.810;8.872;2023-06-26T11:15:15;96619.16;;;30.09;45.07
3697;BME280;60662;48.810;8.872;2023-06-26T11:16:17;96616.22;;;30.04;44.57
3697;BME280;60662;48.810;8.872;2023-06-26T11:17:18;96612.28;;;30.28;44.11
3697;BME280;60662;48.810;8.872;2023-06-26T11:18:20;96618.53;;;30.57;44.30
3697;BME280;60662;48.810;8.872;2023-06-26T11:19:22;96620.03;;;30.17;44.07
3697;BME280;60662;48.810;8.872;2023-06-26T11:20:23;96616.31;;;30.18;43.88
3697;BME280;60662;48.810;8.872;2023-06-26T11:21:25;96624.38;;;30.39;43.67
3697;BME280;60662;48.810;8.872;2023-06-26T11:22:26;96621.69;;;30.39;43.98
3697;BME280;60662;48.810;8.872;2023-06-26T11:23:28;96623.13;;;29.92;44.33
3697;BME280;60662;48.810;8.872;2023-06-26T11:24:30;96622.16;;;30.00;44.43
3697;BME280;60662;48.810;8.872;2023-06-26T11:25:36;96618.91;;;29.68;45.18
3697;BME280;60662;48.810;8.872;2023-06-26T11:26:42;96619.22;;;29.43;45.27
3697;BME280;60662;48.810;8.872;2023-06-26T11:27:44;96621.38;;;29.47;45.61
3697;BME280;60662;48.810;8.872;2023-06-26T11:28:56;96625.25;;;29.60;45.31
3697;BME280;60662;48.810;8.872;2023-06-26T11:29:58;96628.63;;;30.05;44.97
3697;BME280;60662;48.810;8.872;2023-06-26T11:30:59;96630.00;;;30.44;44.96
3697;BME280;60662;48.810;8.872;2023-06-26T11:32:02;96631.75;;;30.30;44.62
3697;BME280;60662;48.810;8.872;2023-06-26T11:33:09;96634.25;;;30.10;44.91
3697;BME280;60662;48.810;8.872;2023-06-26T11:34:13;96631.69;;;29.65;46.03
3697;BME280;60662;48.810;8.872;2023-06-26T11:35:24;96646.88;;;29.07;46.83
3697;BME280;60662;48.810;8.872;2023-06-26T11:36:32;96636.78;;;28.94;47.48
3697;BME280;60662;48.810;8.872;2023-06-26T11:37:33;96638.59;;;28.78;48.08
3697;BME280;60662;48.810;8.872;2023-06-26T11:38:38;96640.19;;;28.49;48.49
3697;BME280;60662;48.810;8.872;2023-06-26T11:39:39;96636.69;;;28.64;48.22
3697;BME280;60662;48.810;8.872;2023-06-26T11:40:41;96645.19;;;28.52;48.77
3697;BME280;60662;48.810;8.872;2023-06-26T11:41:45;96613.59;;;27.93;49.35
3697;BME280;60662;48.810;8.872;2023-06-26T11:42:46;96647.34;;;28.19;49.25
3697;BME280;60662;48.810;8.872;2023-06-26T11:43:48;96645.56;;;28.49;49.24
3697;BME280;60662;48.810;8.872;2023-06-26T11:44:51;96638.59;;;28.78;48.37
3697;BME280;60662;48.810;8.872;2023-06-26T11:45:52;96647.81;;;28.99;47.90
3697;BME280;60662;48.810;8.872;2023-06-26T11:46:54;96644.19;;;29.22;47.60
3697;BME280;60662;48.810;8.872;2023-06-26T11:47:57;96642.69;;;29.49;47.58
3697;BME280;60662;48.810;8.872;2023-06-26T11:48:59;96643.28;;;29.66;47.28
3697;BME280;60662;48.810;8.872;2023-06-26T11:50:04;96643.50;;;29.86;46.46
3697;BME280;60662;48.810;8.872;2023-06-26T11:51:05;96648.06;;;29.86;46.35
3697;BME280;60662;48.810;8.872;2023-06-26T11:52:07;96645.75;;;29.83;46.36
3697;BME280;60662;48.810;8.872;2023-06-26T11:53:08;96653.16;;;29.59;45.35
3697;BME280;60662;48.810;8.872;2023-06-26T11:54:10;96645.66;;;29.91;45.41
3697;BME280;60662;48.810;8.872;2023-06-26T11:55:14;96640.91;;;29.56;45.93
3697;BME280;60662;48.810;8.872;2023-06-26T11:56:16;96642.25;;;29.15;46.77
3697;BME280;60662;48.810;8.872;2023-06-26T11:57:18;96637.63;;;29.61;46.73
3697;BME280;60662;48.810;8.872;2023-06-26T11:58:20;96646.28;;;29.56;46.20
3697;BME280;60662;48.810;8.872;2023-06-26T11:59:21;96643.88;;;29.61;46.75
3697;BME280;60662;48.810;8.872;2023-06-26T12:00:24;96642.50;;;29.87;46.68
3697;BME280;60662;48.810;8.872;2023-06-26T12:01:26;96628.06;;;29.88;45.79
3697;BME280;60662;48.810;8.872;2023-06-26T12:02:28;96650.25;;;29.75;46.23
3697;BME280;60662;48.810;8.872;2023-06-26T12:03:31;96642.81;;;29.41;46.25
3697;BME280;60662;48.810;8.872;2023-06-26T12:04:36;96638.19;;;29.71;46.00
3697;BME280;60662;48.810;8.872;2023-06-26T12:05:39;96642.97;;;29.91;46.19
3697;BME280;60662;48.810;8.872;2023-06-26T12:06:45;96628.09;;;30.17;45.54
3697;BME280;60662;48.810;8.872;2023-06-26T12:07:48;96636.38;;;30.15;44.83
3697;BME280;60662;48.810;8.872;2023-06-26T12:08:50;96629.16;;;29.42;46.01
3697;BME280;60662;48.810;8.872;2023-06-26T12:09:52;96632.97;;;29.33;46.30
3697;BME280;60662;48.810;8.872;2023-06-26T12:10:55;96639.97;;;29.64;45.83
3697;BME280;60662;48.810;8.872;2023-06-26T12:11:57;96643.81;;;30.13;44.89
3697;BME280;60662;48.810;8.872;2023-06-26T12:12:59;96636.44;;;29.85;45.72
3697;BME280;60662;48.810;8.872;2023-06-26T12:14:02;96641.16;;;29.76;45.06
3697;BME280;60662;48.810;8.872;2023-06-26T12:15:06;96634.78;;;29.62;45.39
3697;BME280;60662;48.810;8.872;2023-06-26T12:16:08;96633.88;;;29.40;45.72
3697;BME280;60662;48.810;8.872;2023-06-26T12:17:11;96636.66;;;29.17;46.50
3697;BME280;60662;48.810;8.872;2023-06-26T12:18:14;96634.88;;;28.79;46.52
3697;BME280;60662;48.810;8.872;2023-06-26T12:19:16;96636.78;;;28.56;46.91
3697;BME280;60662;48.810;8.872;2023-06-26T12:20:22;96640.00;;;29.04;46.47
3697;BME280;60662;48.810;8.872;2023-06-26T12:21:44;96637.50;;;29.47;45.74
3697;BME280;60662;48.810;8.872;2023-06-26T12:22:46;96634.16;;;29.45;45.94
3697;BME280;60662;48.810;8.872;2023-06-26T12:23:49;96633.75;;;29.63;45.71
3697;BME280;60662;48.810;8.872;2023-06-26T12:24:50;96641.38;;;29.00;46.65
3697;BME280;60662;48.810;8.872;2023-06-26T12:25:52;96639.81;;;28.91;47.21
3697;BME280;60662;48.810;8.872;2023-06-26T12:26:55;96645.75;;;28.63;46.92
3697;BME280;60662;48.810;8.872;2023-06-26T12:27:58;96641.41;;;28.85;46.55
3697;BME280;60662;48.810;8.872;2023-06-26T12:29:06;96645.34;;;28.74;46.75
3697;BME280;60662;48.810;8.872;2023-06-26T12:30:08;96647.16;;;29.12;46.52
3697;BME280;60662;48.810;8.872;2023-06-26T12:31:16;96653.44;;;29.04;45.48
3697;BME280;60662;48.810;8.872;2023-06-26T12:32:19;96643.34;;;29.21;45.46
3697;BME280;60662;48.810;8.872;2023-06-26T12:33:21;96650.53;;;28.76;45.74
3697;BME280;60662;48.810;8.872;2023-06-26T12:34:28;96653.53;;;28.58;45.92
3697;BME280;60662;48.810;8.872;2023-06-26T12:35:33;96652.00;;;28.63;46.06
3697;BME280;60662;48.810;8.872;2023-06-26T12:36:42;96640.28;;;29.09;45.44
3697;BME280;60662;48.810;8.872;2023-06-26T12:37:44;96635.44;;;29.49;45.40
3697;BME280;60662;48.810;8.872;2023-06-26T12:38:48;96640.81;;;29.49;45.15
3697;BME280;60662;48.810;8.872;2023-06-26T12:39:52;96644.56;;;29.48;45.38
3697;BME280;60662;48.810;8.872;2023-06-26T12:40:56;96648.06;;;29.34;45.26
3697;BME280;60662;48.810;8.872;2023-06-26T12:42:00;96643.06;;;29.01;46.09
3697;BME280;60662;48.810;8.872;2023-06-26T12:43:11;96649.56;;;29.22;45.77
3697;BME280;60662;48.810;8.872;2023-06-26T12:44:25;96644.47;;;29.12;45.88
3697;BME280;60662;48.810;8.872;2023-06-26T12:45:27;96648.97;;;29.26;45.88
3697;BME280;60662;48.810;8.872;2023-06-26T12:46:34;96641.75;;;28.82;45.90
3697;BME280;60662;48.810;8.872;2023-06-26T12:47:39;96643.50;;;28.90;45.88
3697;BME280;60662;48.810;8.872;2023-06-26T12:48:43;96641.56;;;28.98;45.88
3697;BME280;60662;48.810;8.872;2023-06-26T12:49:50;96656.13;;;29.49;44.59
3697;BME280;60662;48.810;8.872;2023-06-26T12:50:52;96651.72;;;29.93;44.06
3697;BME280;60662;48.810;8.872;2023-06-26T12:51:54;96653.56;;;30.14;43.39
3697;BME280;60662;48.810;8.872;2023-06-26T12:52:56;96654.91;;;30.03;43.05
3697;BME280;60662;48.810;8.872;2023-06-26T12:53:57;96657.03;;;29.71;43.87
3697;BME280;60662;48.810;8.872;2023-06-26T12:54:59;96654.47;;;29.03;44.65
3697;BME280;60662;48.810;8.872;2023-06-26T12:56:00;96640.94;;;28.81;44.65
3697;BME280;60662;48.810;8.872;2023-06-26T12:57:02;96637.13;;;28.52;45.00
3697;BME280;60662;48.810;8.872;2023-06-26T12:58:07;96641.28;;;28.93;44.91
3697;BME280;60662;48.810;8.872;2023-06-26T12:59:09;96644.25;;;29.13;44.24
3697;BME280;60662;48.810;8.872;2023-06-26T13:00:11;96644.28;;;29.43;44.40
3697;BME280;60662;48.810;8.872;2023-06-26T13:01:13;96641.56;;;29.95;42.71
3697;BME280;60662;48.810;8.872;2023-06-26T13:02:15;96633.88;;;30.35;42.13
3697;BME280;60662;48.810;8.872;2023-06-26T13:03:17;96642.28;;;30.04;42.23
3697;BME280;60662;48.810;8.872;2023-06-26T13:04:19;96639.03;;;30.08;41.74
3697;BME280;60662;48.810;8.872;2023-06-26T13:05:20;96638.25;;;30.15;41.65
3697;BME280;60662;48.810;8.872;2023-06-26T13:06:21;96639.53;;;30.19;41.15
3697;BME280;60662;48.810;8.872;2023-06-26T13:07:23;96641.75;;;29.93;41.45
3697;BME280;60662;48.810;8.872;2023-06-26T13:08:27;96628.94;;;29.59;41.92
3697;BME280;60662;48.810;8.872;2023-06-26T13:09:32;96638.13;;;29.49;41.56
3697;BME280;60662;48.810;8.872;2023-06-26T13:10:35;96628.84;;;29.52;41.75
3697;BME280;60662;48.810;8.872;2023-06-26T13:11:37;96631.19;;;29.55;41.55
3697;BME280;60662;48.810;8.872;2023-06-26T13:12:39;96642.69;;;29.34;41.76
3697;BME280;60662;48.810;8.872;2023-06-26T13:13:40;96637.03;;;29.44;42.34
3697;BME280;60662;48.810;8.872;2023-06-26T13:14:42;96634.63;;;29.49;41.87
3697;BME280;60662;48.810;8.872;2023-06-26T13:15:43;96636.22;;;29.43;41.75
3697;BME280;60662;48.810;8.872;2023-06-26T13:16:45;96638.94;;;29.65;41.68
3697;BME280;60662;48.810;8.872;2023-06-26T13:17:46;96647.25;;;29.34;41.19
3697;BME280;60662;48.810;8.872;2023-06-26T13:18:48;96638.25;;;29.41;41.40
3697;BME280;60662;48.810;8.872;2023-06-26T13:19:50;96640.44;;;29.23;41.45
3697;BME280;60662;48.810;8.872;2023-06-26T13:20:51;96648.34;;;29.39;41.20
3697;BME280;60662;48.810;8.872;2023-06-26T13:21:53;96627.41;;;29.05;41.46
3697;BME280;60662;48.810;8.872;2023-06-26T13:22:55;96636.19;;;29.13;41.39
3697;BME280;60662;48.810;8.872;2023-06-26T13:23:57;96630.19;;;28.96;41.30
3697;BME280;60662;48.810;8.872;2023-06-26T13:24:59;96636.13;;;29.22;41.64
3697;BME280;60662;48.810;8.872;2023-06-26T13:26:00;96628.81;;;29.67;41.19
3697;BME280;60662;48.810;8.872;2023-06-26T13:27:02;96633.59;;;29.50;41.41
3697;BME280;60662;48.810;8.872;2023-06-26T13:28:03;96633.22;;;29.53;41.39
3697;BME280;60662;48.810;8.872;2023-06-26T13:29:06;96633.78;;;29.19;41.14
3697;BME280;60662;48.810;8.872;2023-06-26T13:30:08;96638.06;;;29.28;41.69
3697;BME280;60662;48.810;8.872;2023-06-26T13:31:09;96635.81;;;29.46;41.40
3697;BME280;60662;48.810;8.872;2023-06-26T13:32:11;96638.16;;;29.05;41.97
3697;BME280;60662;48.810;8.872;2023-06-26T13:33:12;96630.81;;;28.98;42.07
3697;BME280;60662;48.810;8.872;2023-06-26T13:34:21;96629.72;;;29.38;41.81
3697;BME280;60662;48.810;8.872;2023-06-26T13:35:24;96633.44;;;29.22;41.34
3697;BME280;60662;48.810;8.872;2023-06-26T13:36:26;96622.94;;;28.82;41.75
3697;BME280;60662;48.810;8.872;2023-06-26T13:37:27;96619.16;;;28.91;42.10
3697;BME280;60662;48.810;8.872;2023-06-26T13:38:29;96628.97;;;29.14;41.57
3697;BME280;60662;48.810;8.872;2023-06-26T13:39:30;96619.63;;;29.40;41.16
3697;BME280;60662;48.810;8.872;2023-06-26T13:40:32;96628.25;;;30.08;40.65
3697;BME280;60662;48.810;8.872;2023-06-26T13:41:33;96624.09;;;30.06;40.42
3697;BME280;60662;48.810;8.872;2023-06-26T13:42:35;96620.03;;;29.95;40.45
3697;BME280;60662;48.810;8.872;2023-06-26T13:43:38;96626.31;;;29.65;39.52
3697;BME280;60662;48.810;8.872;2023-06-26T13:44:40;96615.03;;;29.55;39.83
3697;BME280;60662;48.810;8.872;2023-06-26T13:46:01;96624.53;;;29.36;40.33
3697;BME280;60662;48.810;8.872;2023-06-26T13:47:04;96623.22;;;29.02;40.88
3697;BME280;60662;48.810;8.872;2023-06-26T13:48:06;96623.16;;;29.10;40.76
3697;BME280;60662;48.810;8.872;2023-06-26T13:49:08;96635.38;;;28.83;40.75
3697;BME280;60662;48.810;8.872;2023-06-26T13:50:10;96609.75;;;28.57;41.71
3697;BME280;60662;48.810;8.872;2023-06-26T13:51:11;96608.50;;;29.13;41.46
3697;BME280;60662;48.810;8.872;2023-06-26T13:52:13;96614.63;;;29.07;41.01
3697;BME280;60662;48.810;8.872;2023-06-26T13:53:14;96604.22;;;29.48;40.71
3697;BME280;60662;48.810;8.872;2023-06-26T13:54:16;96615.25;;;29.90;40.74
3697;BME280;60662;48.810;8.872;2023-06-26T13:55:19;96617.09;;;29.90;40.62
3697;BME280;60662;48.810;8.872;2023-06-26T13:56:24;96622.78;;;29.43;40.52
3697;BME280;60662;48.810;8.872;2023-06-26T13:57:25;96607.47;;;28.69;40.97
3697;BME280;60662;48.810;8.872;2023-06-26T13:58:29;96620.00;;;28.54;40.87
3697;BME280;60662;48.810;8.872;2023-06-26T13:59:36;96622.38;;;29.16;40.88
3697;BME280;60662;48.810;8.872;2023-06-26T14:00:37;96618.22;;;29.44;40.50
3697;BME280;60662;48.810;8.872;2023-06-26T14:01:39;96618.13;;;29.22;40.36
3697;BME280;60662;48.810;8.872;2023-06-26T14:02:43;96620.44;;;28.80;40.83